Pagrindinis puslapis
METAR-TAF:

METAR-TAF

Oro uostai :

Pernu, Estija

platuma: 58-25-09N, ilguma: 024-28-22E, Aukštis: 14 m

Dabartinis oras

Ataskaita buvo paskelbta 1 valandą ir 11 minutes, ne 12:50 UTC
Vėjas 13 kt iš Šiaurės/Šiaurės Rytų, svyruoja nuo Šiaurės ir Rytų/Šiaurės Rytų
Temperatūra 16°C
Drėgmė 48%
Slėgis 1022 hPa
Matomumas 10 km arba daugiau
nėra debesų žemiau 1500 m ir nėra kamuolinių lietaus debesų

METAR: EEPU 011250Z 03013KT 010V070 CAVOK 16/05 Q1022

Laikas: 17:01 (14:01 UTC)


TAF: trūkstamas

Orai ataskaitas ir orų prognozės (METAR, TAF).

turimą stotys yra geltonos ir raudonos taškus žemėlapyje.

Perkelti pele per norėdami pamatyti stoties vardą.

Tada spustelėkite, norėdami matyti oro stebėjimo ir prognozės.

Norėdami pakeisti žemėlapį: spustelėkite ant žalios mygtukų su juodo kryžiaus žemyn,; žalią mygtuką su brūkšneliu, jei norite nutolinti; arba žalių rodyklių gretimoms žemėlapius.


METAR-TAF: